Time;durP1;ratioP1;P1;durP2;ratioP2;P2;SDS_P1;SDS_P2;PMS_P1;PMS_P2;Temp;Humidity;BMP_temperature;BMP_pressure;BME280_temperature;BME280_humidity;BME280_pressure;Samples;Min_cycle;Max_cycle;Signal;HPM_P1;HPM_P2
2023/05/22 00:00:14;;;;;;;;;;;;;;;24.94;100.00;98745.03;5041069;28;19990;-40
2023/05/22 00:02:42;;;;;;;;;;;;;;;25.29;100.00;98752.19;5042494;28;20437;-40
2023/05/22 00:05:09;;;;;;;;;;;;;;;24.96;100.00;98740.44;5042383;28;19925;-40
2023/05/22 00:07:34;;;;;;;;;;;;;;;26.81;100.00;98701.81;5040555;28;19921;-40
2023/05/22 00:10:00;;;;;;;;;;;;;;;25.49;100.00;98741.50;5040981;28;19916;-40
2023/05/22 00:12:25;;;;;;;;;;;;;;;25.77;100.00;98740.47;5042056;28;19913;-40
2023/05/22 00:14:51;;;;;;;;;;;;;;;26.09;100.00;98739.03;5040664;28;19920;-40
2023/05/22 00:17:17;;;;;;;;;;;;;;;26.91;100.00;98697.22;5040462;28;19920;-40
2023/05/22 00:19:42;;;;;;;;;;;;;;;27.37;100.00;98676.53;5041312;28;19931;-40
2023/05/22 00:22:08;;;;;;;;;;;;;;;27.61;100.00;98661.66;5042311;28;19920;-40
2023/05/22 00:24:33;;;;;;;;;;;;;;;27.23;100.00;98663.94;5041993;28;19921;-39
2023/05/22 00:26:58;;;;;;;;;;;;;;;26.90;100.00;98669.16;5039714;28;19928;-40
2023/05/22 00:29:23;;;;;;;;;;;;;;;25.78;100.00;98697.25;5041106;28;19925;-39
2023/05/22 00:31:48;;;;;;;;;;;;;;;25.10;100.00;98718.03;5041353;28;19955;-40
2023/05/22 00:34:14;;;;;;;;;;;;;;;24.38;100.00;98731.81;5019888;28;19999;-40
2023/05/22 00:36:39;;;;;;;;;;;;;;;23.86;100.00;98736.63;5040653;28;19972;-40
2023/05/22 00:39:05;;;;;;;;;;;;;;;24.84;100.00;98718.75;5022159;28;20002;-39
2023/05/22 00:41:32;;;;;;;;;;;;;;;26.24;100.00;98679.44;5041374;28;19931;-40
2023/05/22 00:43:58;;;;;;;;;;;;;;;26.95;100.00;98661.56;5040492;28;19929;-40
2023/05/22 00:46:23;;;;;;;;;;;;;;;27.08;100.00;98654.00;5039173;28;19939;-40
2023/05/22 00:48:48;;;;;;;;;;;;;;;25.27;100.00;98703.22;5041965;28;20585;-40
2023/05/22 00:51:14;;;;;;;;;;;;;;;25.37;100.00;98715.38;5041637;28;19927;-40
2023/05/22 00:53:39;;;;;;;;;;;;;;;26.28;100.00;98690.50;5022803;28;19921;-40
2023/05/22 00:56:05;;;;;;;;;;;;;;;25.53;100.00;98722.59;5039906;28;19929;-40
2023/05/22 00:58:31;;;;;;;;;;;;;;;26.58;100.00;98683.09;5039796;28;19920;-40
2023/05/22 01:00:56;;;;;;;;;;;;;;;26.94;100.00;98667.00;5040321;28;19920;-40
2023/05/22 01:03:24;;;;;;;;;;;;;;;26.94;100.00;98667.84;5041139;28;20317;-40
2023/05/22 01:05:50;;;;;;;;;;;;;;;26.78;100.00;98670.44;5021322;28;20419;-40
2023/05/22 01:08:15;;;;;;;;;;;;;;;26.16;100.00;98676.75;5039703;28;19921;-40
2023/05/22 01:10:41;;;;;;;;;;;;;;;25.86;100.00;98680.66;5022778;28;19938;-41
2023/05/22 01:13:25;;;;;;;;;;;;;;;25.15;100.00;98703.41;5040721;28;19916;-40
2023/05/22 01:15:50;;;;;;;;;;;;;;;26.60;100.00;98684.59;5040817;28;20381;-40
2023/05/22 01:18:21;;;;;;;;;;;;;;;24.28;100.00;98719.63;5040686;28;19921;-40
2023/05/22 01:20:50;;;;;;;;;;;;;;;24.77;100.00;98710.59;5038307;28;20310;-40
2023/05/22 01:23:30;;;;;;;;;;;;;;;23.95;100.00;98721.78;5039447;28;20040;-40
2023/05/22 01:26:01;;;;;;;;;;;;;;;22.16;100.00;98775.03;5040030;28;19986;-40
2023/05/22 01:28:38;;;;;;;;;;;;;;;25.26;100.00;98755.13;5037931;28;20018;-40
2023/05/22 01:31:05;;;;;;;;;;;;;;;24.24;100.00;98745.38;5037416;28;19925;-40
2023/05/22 01:33:32;;;;;;;;;;;;;;;25.21;100.00;98741.56;5023041;28;19966;-40
2023/05/22 01:35:58;;;;;;;;;;;;;;;24.89;100.00;98713.03;5039465;28;19924;-40
2023/05/22 01:38:24;;;;;;;;;;;;;;;25.02;100.00;98690.63;5022221;28;20396;-39
2023/05/22 01:40:49;;;;;;;;;;;;;;;25.75;100.00;98675.63;5023628;28;19921;-40
2023/05/22 01:43:15;;;;;;;;;;;;;;;23.50;100.00;98719.72;5005259;28;20016;-40
2023/05/22 01:45:40;;;;;;;;;;;;;;;25.68;100.00;98696.50;5023038;28;19921;-40
2023/05/22 01:48:05;;;;;;;;;;;;;;;26.38;100.00;98662.16;5039545;28;19920;-40
2023/05/22 01:50:30;;;;;;;;;;;;;;;26.40;100.00;98651.47;5041449;28;19924;-40
2023/05/22 01:53:11;;;;;;;;;;;;;;;26.24;100.00;98660.94;5038654;28;19952;-40
2023/05/22 01:55:55;;;;;;;;;;;;;;;27.01;100.00;98654.81;5040447;28;19920;-40
2023/05/22 01:58:42;;;;;;;;;;;;;;;24.88;100.00;98701.66;5040223;28;20357;-40
2023/05/22 02:01:07;;;;;;;;;;;;;;;24.38;100.00;98720.41;5020782;28;19924;-40
2023/05/22 02:03:34;;;;;;;;;;;;;;;26.05;100.00;98701.59;5021456;28;19925;-40
2023/05/22 02:06:00;;;;;;;;;;;;;;;24.71;100.00;98689.28;5038005;28;20289;-40
2023/05/22 02:08:25;;;;;;;;;;;;;;;26.14;100.00;98691.94;5019536;28;19927;-40
2023/05/22 02:10:51;;;;;;;;;;;;;;;26.47;100.00;98663.03;5022486;28;19920;-40
2023/05/22 02:13:16;;;;;;;;;;;;;;;26.44;100.00;98658.09;5018752;28;19931;-40
2023/05/22 02:15:43;;;;;;;;;;;;;;;26.76;100.00;98638.09;5019870;28;19920;-40
2023/05/22 02:18:10;;;;;;;;;;;;;;;27.00;100.00;98637.28;5039971;28;19931;-40
2023/05/22 02:20:35;;;;;;;;;;;;;;;26.08;100.00;98655.59;5039658;28;20436;-40
2023/05/22 02:23:00;;;;;;;;;;;;;;;26.59;100.00;98643.28;5040537;28;19951;-40
2023/05/22 02:25:25;;;;;;;;;;;;;;;26.58;100.00;98639.00;5038676;28;19982;-40
2023/05/22 02:27:51;;;;;;;;;;;;;;;26.69;100.00;98648.47;5036935;28;19952;-40
2023/05/22 02:30:16;;;;;;;;;;;;;;;26.16;100.00;98634.53;5038835;28;19987;-40
2023/05/22 02:32:41;;;;;;;;;;;;;;;25.02;100.00;98669.53;5039330;28;19920;-40
2023/05/22 02:35:07;;;;;;;;;;;;;;;24.94;100.00;98656.28;5039286;28;19925;-40
2023/05/22 02:37:32;;;;;;;;;;;;;;;26.00;100.00;98645.81;5038801;28;20015;-40
2023/05/22 02:39:57;;;;;;;;;;;;;;;26.26;100.00;98629.94;5019745;28;19936;-40
2023/05/22 02:42:22;;;;;;;;;;;;;;;26.23;100.00;98629.44;5039368;28;20098;-40
2023/05/22 02:44:47;;;;;;;;;;;;;;;26.43;100.00;98616.81;5037990;28;19929;-40
2023/05/22 02:47:13;;;;;;;;;;;;;;;26.56;100.00;98614.56;5039578;28;19932;-39
2023/05/22 02:49:38;;;;;;;;;;;;;;;26.27;100.00;98621.06;5039036;28;19916;-40
2023/05/22 02:52:03;;;;;;;;;;;;;;;26.47;100.00;98610.22;5039952;28;19924;-40
2023/05/22 02:54:28;;;;;;;;;;;;;;;26.16;100.00;98617.84;5039894;28;19917;-40
2023/05/22 02:56:54;;;;;;;;;;;;;;;25.74;100.00;98629.13;5038925;28;20020;-40
2023/05/22 02:59:19;;;;;;;;;;;;;;;25.68;100.00;98625.28;5039107;28;20007;-40
2023/05/22 03:01:47;;;;;;;;;;;;;;;24.95;100.00;98641.28;5037942;28;19960;-40
2023/05/22 03:04:12;;;;;;;;;;;;;;;25.99;100.00;98617.78;5038877;28;19921;-40
2023/05/22 03:06:38;;;;;;;;;;;;;;;26.22;100.00;98596.94;5037757;28;20336;-40
2023/05/22 03:09:03;;;;;;;;;;;;;;;26.11;100.00;98602.47;5037339;28;19924;-40
2023/05/22 03:11:29;;;;;;;;;;;;;;;26.10;100.00;98603.47;5040529;28;20029;-40
2023/05/22 03:13:54;;;;;;;;;;;;;;;25.67;100.00;98615.75;5042248;28;19920;-40
2023/05/22 03:16:19;;;;;;;;;;;;;;;25.88;100.00;98607.47;5041150;28;19920;-40
2023/05/22 03:18:45;;;;;;;;;;;;;;;25.93;100.00;98614.94;5043357;28;19917;-40
2023/05/22 03:21:10;;;;;;;;;;;;;;;26.17;100.00;98593.13;5043297;28;19928;-40
2023/05/22 03:23:35;;;;;;;;;;;;;;;26.25;100.00;98594.00;5042104;28;20164;-40
2023/05/22 03:26:00;;;;;;;;;;;;;;;26.24;100.00;98600.25;5042255;28;19927;-40
2023/05/22 03:28:25;;;;;;;;;;;;;;;25.99;100.00;98595.84;5040194;28;19921;-40
2023/05/22 03:30:51;;;;;;;;;;;;;;;26.16;100.00;98602.84;5042448;28;20018;-41
2023/05/22 03:33:16;;;;;;;;;;;;;;;25.99;100.00;98606.41;5042017;28;19920;-40
2023/05/22 03:35:43;;;;;;;;;;;;;;;25.83;100.00;98607.91;5041972;28;19923;-41
2023/05/22 03:38:08;;;;;;;;;;;;;;;25.44;100.00;98623.31;5041768;28;20057;-40
2023/05/22 03:40:33;;;;;;;;;;;;;;;25.20;100.00;98619.53;5040710;28;20512;-40
2023/05/22 03:42:58;;;;;;;;;;;;;;;25.07;100.00;98626.13;5041696;28;20397;-40
2023/05/22 03:45:24;;;;;;;;;;;;;;;24.79;100.00;98628.78;5040731;28;20468;-40
2023/05/22 03:47:49;;;;;;;;;;;;;;;24.62;100.00;98640.97;5042378;28;19921;-40
2023/05/22 03:50:14;;;;;;;;;;;;;;;25.04;100.00;98630.72;5040271;28;19956;-40
2023/05/22 03:52:40;;;;;;;;;;;;;;;24.69;100.00;98633.31;5041543;28;19920;-40
2023/05/22 03:55:05;;;;;;;;;;;;;;;24.84;100.00;98634.47;5042101;28;20007;-40
2023/05/22 03:57:30;;;;;;;;;;;;;;;24.77;100.00;98636.84;5038303;28;19948;-40
2023/05/22 03:59:56;;;;;;;;;;;;;;;24.89;100.00;98636.66;5041544;28;19935;-40
2023/05/22 04:02:25;;;;;;;;;;;;;;;24.91;100.00;98627.63;5042657;28;19974;-40
2023/05/22 04:04:50;;;;;;;;;;;;;;;25.03;100.00;98625.56;5023135;28;19924;-40
2023/05/22 04:07:17;;;;;;;;;;;;;;;25.27;100.00;98632.88;5041634;28;19917;-40
2023/05/22 04:09:42;;;;;;;;;;;;;;;25.52;100.00;98622.53;5041194;28;20344;-40
2023/05/22 04:12:07;;;;;;;;;;;;;;;25.71;100.00;98619.72;5041527;28;19931;-40
2023/05/22 04:14:32;;;;;;;;;;;;;;;25.83;100.00;98618.47;5040723;28;19920;-40
2023/05/22 04:16:58;;;;;;;;;;;;;;;25.85;100.00;98608.59;5023022;28;20476;-40
2023/05/22 04:19:23;;;;;;;;;;;;;;;25.40;100.00;98622.78;5042159;28;19917;-40
2023/05/22 04:21:48;;;;;;;;;;;;;;;25.59;100.00;98627.06;5040848;28;20396;-40
2023/05/22 04:24:13;;;;;;;;;;;;;;;25.56;100.00;98616.00;5033221;28;21145;-40
2023/05/22 04:26:39;;;;;;;;;;;;;;;25.11;100.00;98632.72;5036223;28;19959;-40
2023/05/22 04:29:09;;;;;;;;;;;;;;;25.38;100.00;98622.13;5041308;28;19967;-40
2023/05/22 04:31:34;;;;;;;;;;;;;;;24.99;100.00;98635.56;5039414;28;19924;-40
2023/05/22 04:33:59;;;;;;;;;;;;;;;25.61;100.00;98619.84;5041105;28;20304;-40
2023/05/22 04:36:25;;;;;;;;;;;;;;;25.94;100.00;98608.69;5021415;28;19921;-40
2023/05/22 04:38:51;;;;;;;;;;;;;;;25.62;100.00;98613.56;5041477;28;19920;-40
2023/05/22 04:41:16;;;;;;;;;;;;;;;25.62;100.00;98618.84;5041137;28;19927;-40
2023/05/22 04:43:42;;;;;;;;;;;;;;;26.03;100.00;98603.28;5041981;28;20293;-40
2023/05/22 04:46:08;;;;;;;;;;;;;;;26.15;100.00;98601.19;5040505;28;19970;-40
2023/05/22 04:48:34;;;;;;;;;;;;;;;26.15;100.00;98603.81;5041288;28;19920;-40
2023/05/22 04:51:01;;;;;;;;;;;;;;;26.21;100.00;98603.19;5041473;28;20333;-40
2023/05/22 04:53:27;;;;;;;;;;;;;;;26.08;100.00;98595.72;5040739;28;20425;-40
2023/05/22 04:55:53;;;;;;;;;;;;;;;26.41;100.00;98601.16;5040969;28;20012;-40
2023/05/22 04:58:18;;;;;;;;;;;;;;;26.49;100.00;98601.16;5039947;28;19925;-40
2023/05/22 05:00:43;;;;;;;;;;;;;;;26.47;100.00;98610.22;5039951;28;19917;-40
2023/05/22 05:03:10;;;;;;;;;;;;;;;25.82;100.00;98627.38;5041773;28;19920;-40
2023/05/22 05:05:35;;;;;;;;;;;;;;;26.11;100.00;98613.03;5040560;28;19925;-40
2023/05/22 05:08:01;;;;;;;;;;;;;;;26.48;100.00;98602.16;5039637;28;19932;-40
2023/05/22 05:10:26;;;;;;;;;;;;;;;26.72;100.00;98592.66;5039910;28;19928;-40
2023/05/22 05:12:51;;;;;;;;;;;;;;;26.85;100.00;98594.84;5040524;28;19931;-39
2023/05/22 05:15:17;;;;;;;;;;;;;;;26.78;100.00;98591.19;5039786;28;20375;-40
2023/05/22 05:17:42;;;;;;;;;;;;;;;26.86;100.00;98596.47;5040705;28;19975;-40
2023/05/22 05:20:08;;;;;;;;;;;;;;;26.69;100.00;98593.00;5040165;28;19924;-40
2023/05/22 05:22:33;;;;;;;;;;;;;;;26.71;100.00;98585.72;5021439;28;20755;-40
2023/05/22 05:24:58;;;;;;;;;;;;;;;26.66;100.00;98598.56;5041149;28;19931;-40
2023/05/22 05:27:23;;;;;;;;;;;;;;;26.80;100.00;98594.47;5038989;28;19943;-39
2023/05/22 05:29:48;;;;;;;;;;;;;;;26.74;100.00;98597.78;5039108;28;19986;-39
2023/05/22 05:32:14;;;;;;;;;;;;;;;26.83;100.00;98589.69;5040365;28;19964;-40
2023/05/22 05:34:40;;;;;;;;;;;;;;;26.77;100.00;98600.09;5040834;28;20409;-40
2023/05/22 05:37:05;;;;;;;;;;;;;;;26.97;100.00;98604.09;5036838;28;20417;-39
2023/05/22 05:39:30;;;;;;;;;;;;;;;27.10;100.00;98604.44;5040292;28;19920;-39
2023/05/22 05:41:56;;;;;;;;;;;;;;;27.13;100.00;98605.91;5041462;28;20008;-40
2023/05/22 05:44:21;;;;;;;;;;;;;;;27.02;100.00;98599.13;5038650;28;20023;-40
2023/05/22 05:46:46;;;;;;;;;;;;;;;27.25;100.00;98596.69;5039716;28;19921;-40
2023/05/22 05:49:11;;;;;;;;;;;;;;;27.43;100.00;98600.97;5039671;28;19959;-40
2023/05/22 05:51:37;;;;;;;;;;;;;;;27.75;100.00;98585.03;5038560;28;20393;-40
2023/05/22 05:54:02;;;;;;;;;;;;;;;27.69;100.00;98595.50;5038105;28;19927;-40
2023/05/22 05:56:27;;;;;;;;;;;;;;;28.06;100.00;98599.41;5038716;28;19999;-40
2023/05/22 05:58:53;;;;;;;;;;;;;;;27.72;100.00;98611.03;5039249;28;20350;-40
2023/05/22 06:01:18;;;;;;;;;;;;;;;27.78;100.00;98589.19;5038622;28;19943;-41
2023/05/22 06:03:44;;;;;;;;;;;;;;;28.15;100.00;98590.44;5037926;28;20015;-40
2023/05/22 06:06:09;;;;;;;;;;;;;;;28.63;100.00;98567.38;5038327;28;19917;-40
2023/05/22 06:08:34;;;;;;;;;;;;;;;28.71;100.00;98579.72;5038269;28;19924;-40
2023/05/22 06:11:00;;;;;;;;;;;;;;;28.81;100.00;98574.19;5038938;28;20466;-40
2023/05/22 06:13:25;;;;;;;;;;;;;;;28.36;100.00;98597.78;5038349;28;19917;-40
2023/05/22 06:15:50;;;;;;;;;;;;;;;28.70;100.00;98586.84;5037675;28;20804;-40
2023/05/22 06:18:16;;;;;;;;;;;;;;;28.84;100.00;98579.16;5039619;28;19963;-40
2023/05/22 06:20:41;;;;;;;;;;;;;;;28.77;100.00;98579.84;5038075;28;19921;-40
2023/05/22 06:23:07;;;;;;;;;;;;;;;28.92;100.00;98587.88;5039665;28;20274;-39
2023/05/22 06:25:32;;;;;;;;;;;;;;;28.34;100.00;98603.25;5019042;28;19913;-40
2023/05/22 06:27:57;;;;;;;;;;;;;;;27.76;100.00;98617.66;5038379;28;19920;-40
2023/05/22 06:30:23;;;;;;;;;;;;;;;28.31;100.00;98593.00;5038132;28;19963;-40
2023/05/22 06:32:48;;;;;;;;;;;;;;;27.18;100.00;98639.78;5038650;28;20035;-40
2023/05/22 06:35:13;;;;;;;;;;;;;;;26.56;100.00;98667.41;5036938;28;19921;-40
2023/05/22 06:37:40;;;;;;;;;;;;;;;28.49;100.00;98613.16;5039321;28;19916;-40
2023/05/22 06:40:06;;;;;;;;;;;;;;;28.70;100.00;98584.22;5039864;28;19921;-40
2023/05/22 06:42:32;;;;;;;;;;;;;;;29.04;100.00;98600.72;5038005;28;19916;-40
2023/05/22 06:44:57;;;;;;;;;;;;;;;28.70;100.00;98600.09;5037604;28;19971;-40
2023/05/22 06:47:22;;;;;;;;;;;;;;;29.08;100.00;98586.97;5038555;28;21132;-40
2023/05/22 06:49:47;;;;;;;;;;;;;;;27.51;100.00;98624.78;5039922;28;20946;-40
2023/05/22 06:52:13;;;;;;;;;;;;;;;28.86;100.00;98601.84;5039030;28;20409;-40
2023/05/22 06:54:41;;;;;;;;;;;;;;;27.10;100.00;98654.66;5021581;28;20381;-40
2023/05/22 06:57:06;;;;;;;;;;;;;;;28.72;100.00;98624.63;5039723;28;19916;-40
2023/05/22 06:59:32;;;;;;;;;;;;;;;29.12;100.00;98612.09;5038795;28;19917;-40
2023/05/22 07:01:57;;;;;;;;;;;;;;;28.89;100.00;98608.59;5005563;28;19927;-40
2023/05/22 07:04:22;;;;;;;;;;;;;;;29.35;100.00;98603.31;5038387;28;20012;-40
2023/05/22 07:06:48;;;;;;;;;;;;;;;29.58;100.00;98597.94;5036569;28;20312;-40
2023/05/22 07:09:14;;;;;;;;;;;;;;;29.51;100.00;98597.03;5037263;28;19925;-40
2023/05/22 07:11:41;;;;;;;;;;;;;;;29.73;100.00;98600.66;5039128;28;19920;-40
2023/05/22 07:14:07;;;;;;;;;;;;;;;28.40;100.00;98625.56;5039321;28;19928;-40
2023/05/22 07:16:32;;;;;;;;;;;;;;;27.75;100.00;98647.72;5037812;28;19920;-40
2023/05/22 07:18:57;;;;;;;;;;;;;;;29.31;100.00;98623.22;5039255;28;19925;-40
2023/05/22 07:21:23;;;;;;;;;;;;;;;29.35;100.00;98609.44;5037084;28;19917;-40
2023/05/22 07:23:48;;;;;;;;;;;;;;;30.12;100.00;98594.25;5036128;28;19978;-40
2023/05/22 07:26:13;;;;;;;;;;;;;;;30.50;100.00;98596.78;5036327;28;19921;-40
2023/05/22 07:28:39;;;;;;;;;;;;;;;30.38;100.00;98576.03;5038351;28;19932;-40
2023/05/22 07:31:04;;;;;;;;;;;;;;;30.51;100.00;98577.16;5038898;28;19916;-40
2023/05/22 07:33:29;;;;;;;;;;;;;;;30.89;100.00;98580.47;5039311;28;19969;-40
2023/05/22 07:35:55;;;;;;;;;;;;;;;30.63;100.00;98581.81;5037867;28;19920;-40
2023/05/22 07:38:20;;;;;;;;;;;;;;;30.36;100.00;98604.59;5036492;28;19917;-40
2023/05/22 07:40:45;;;;;;;;;;;;;;;29.89;100.00;98603.13;5039722;28;19960;-40
2023/05/22 07:43:10;;;;;;;;;;;;;;;30.10;100.00;98597.06;5039954;28;19916;-40
2023/05/22 07:45:37;;;;;;;;;;;;;;;27.54;100.00;98672.06;5036505;28;20332;-40
2023/05/22 07:48:03;;;;;;;;;;;;;;;27.48;100.00;98694.72;5039788;28;20293;-40
2023/05/22 07:50:29;;;;;;;;;;;;;;;29.82;100.00;98623.47;5039378;28;21037;-40
2023/05/22 07:52:54;;;;;;;;;;;;;;;30.18;100.00;98612.13;5039058;28;19923;-40
2023/05/22 07:55:20;;;;;;;;;;;;;;;30.56;100.00;98614.63;5037854;28;19921;-40
2023/05/22 07:57:46;;;;;;;;;;;;;;;28.10;100.00;98656.28;5038449;28;19920;-40
2023/05/22 08:00:12;;;;;;;;;;;;;;;27.68;100.00;98689.91;5041748;28;19974;-40
2023/05/22 08:02:37;;;;;;;;;;;;;;;27.43;100.00;98696.19;5042679;28;19921;-40
2023/05/22 08:05:03;;;;;;;;;;;;;;;29.61;100.00;98654.16;5042085;28;20301;-40
2023/05/22 08:07:28;;;;;;;;;;;;;;;29.27;100.00;98664.38;5033463;28;21243;-40
2023/05/22 08:09:53;;;;;;;;;;;;;;;27.78;100.00;98689.75;5041444;28;19917;-40
2023/05/22 08:12:18;;;;;;;;;;;;;;;29.64;100.00;98647.66;5042345;28;20041;-40
2023/05/22 08:14:44;;;;;;;;;;;;;;;30.90;100.00;98597.22;5041147;28;19967;-40
2023/05/22 08:17:09;;;;;;;;;;;;;;;30.77;100.00;98605.88;5041237;28;20340;-40
2023/05/22 08:19:35;;;;;;;;;;;;;;;31.27;100.00;98596.97;5042427;28;19920;-40
2023/05/22 08:22:00;;;;;;;;;;;;;;;30.23;100.00;98629.13;5038124;28;19920;-41
2023/05/22 08:24:27;;;;;;;;;;;;;;;29.71;100.00;98637.16;5041449;28;19927;-42
2023/05/22 08:26:53;;;;;;;;;;;;;;;29.48;100.00;98655.75;5040709;28;19928;-41
2023/05/22 08:29:18;;;;;;;;;;;;;;;30.81;100.00;98615.94;5023567;28;19920;-40
2023/05/22 08:31:43;;;;;;;;;;;;;;;32.32;100.00;98581.06;5041330;28;19917;-40
2023/05/22 08:34:09;;;;;;;;;;;;;;;32.47;100.00;98587.03;5024247;28;19920;-40
2023/05/22 08:36:35;;;;;;;;;;;;;;;28.66;100.00;98638.53;5040537;28;19936;-40
2023/05/22 08:39:00;;;;;;;;;;;;;;;28.90;100.00;98664.09;5042674;28;19921;-40
2023/05/22 08:41:26;;;;;;;;;;;;;;;29.05;100.00;98672.13;5042017;28;19939;-40
2023/05/22 08:43:51;;;;;;;;;;;;;;;28.86;100.00;98684.00;5042314;28;19917;-40
2023/05/22 08:46:18;;;;;;;;;;;;;;;29.38;100.00;98666.63;5040510;28;20387;-40
2023/05/22 08:48:44;;;;;;;;;;;;;;;28.85;100.00;98655.84;5024761;28;19917;-40
2023/05/22 08:51:10;;;;;;;;;;;;;;;27.71;100.00;98705.47;5040528;28;19927;-40
2023/05/22 08:53:35;;;;;;;;;;;;;;;27.23;100.00;98732.69;5021996;28;19925;-40
2023/05/22 08:56:04;;;;;;;;;;;;;;;27.84;100.00;98678.50;5041218;28;19939;-40
2023/05/22 08:58:30;;;;;;;;;;;;;;;27.46;100.00;98723.16;5040774;28;19924;-41
2023/05/22 09:00:55;;;;;;;;;;;;;;;27.83;100.00;98719.19;5040843;28;20149;-40
2023/05/22 09:03:21;;;;;;;;;;;;;;;27.29;100.00;98716.19;5022201;28;19921;-40
2023/05/22 09:05:48;;;;;;;;;;;;;;;28.12;100.00;98712.53;5039720;28;19917;-40
2023/05/22 09:08:14;;;;;;;;;;;;;;;27.04;100.00;98750.44;5040646;28;20062;-40
2023/05/22 09:10:39;;;;;;;;;;;;;;;27.43;100.00;98754.38;5041064;28;20449;-41
2023/05/22 09:13:07;;;;;;;;;;;;;;;28.25;100.00;98751.75;5041017;28;19916;-41
2023/05/22 09:15:33;;;;;;;;;;;;;;;27.70;100.00;98746.13;5040589;28;19940;-40
2023/05/22 09:17:58;;;;;;;;;;;;;;;28.03;100.00;98732.09;5041674;28;20460;-40
2023/05/22 09:20:24;;;;;;;;;;;;;;;27.29;100.00;98774.34;5040779;28;20362;-40
2023/05/22 09:22:49;;;;;;;;;;;;;;;27.16;100.00;98771.31;5040906;28;20441;-40
2023/05/22 09:25:18;;;;;;;;;;;;;;;27.07;100.00;98802.16;5022746;28;19921;-40
2023/05/22 09:27:46;;;;;;;;;;;;;;;26.69;100.00;98805.13;5023305;28;19924;-40
2023/05/22 09:30:16;;;;;;;;;;;;;;;26.60;100.00;98818.47;5021614;28;19921;-40
2023/05/22 09:32:41;;;;;;;;;;;;;;;26.66;100.00;98838.94;5021570;28;19927;-40
2023/05/22 09:35:07;;;;;;;;;;;;;;;26.58;100.00;98870.63;5021952;28;19925;-40
2023/05/22 09:37:33;;;;;;;;;;;;;;;27.11;100.00;98857.19;5021238;28;19917;-40
2023/05/22 09:39:58;;;;;;;;;;;;;;;26.17;100.00;98868.44;5021868;28;19921;-40
2023/05/22 09:42:23;;;;;;;;;;;;;;;27.92;100.00;98871.72;5039466;28;19916;-40
2023/05/22 09:44:48;;;;;;;;;;;;;;;27.79;100.00;98810.47;5038100;28;19925;-40
2023/05/22 09:47:14;;;;;;;;;;;;;;;27.05;100.00;98823.50;5040089;28;19956;-40
2023/05/22 09:49:43;;;;;;;;;;;;;;;27.40;100.00;98789.91;5040452;28;19924;-40
2023/05/22 09:52:08;;;;;;;;;;;;;;;26.65;100.00;98861.09;5022160;28;19917;-40
2023/05/22 09:54:34;;;;;;;;;;;;;;;26.65;100.00;98883.03;5040340;28;20444;-40
2023/05/22 09:57:00;;;;;;;;;;;;;;;27.13;100.00;98868.44;5040237;28;19926;-40
2023/05/22 09:59:30;;;;;;;;;;;;;;;27.61;100.00;98846.81;5005480;28;19917;-40
2023/05/22 10:01:56;;;;;;;;;;;;;;;27.99;100.00;98860.50;5040089;28;19927;-40
2023/05/22 10:04:21;;;;;;;;;;;;;;;28.17;100.00;98779.09;5039189;28;19917;-41
2023/05/22 10:06:49;;;;;;;;;;;;;;;27.69;100.00;98860.09;5039295;28;19936;-40
2023/05/22 10:09:15;;;;;;;;;;;;;;;27.85;100.00;98904.28;5021318;28;19982;-40
2023/05/22 10:11:41;;;;;;;;;;;;;;;27.69;100.00;98926.22;5039992;28;19920;-41
2023/05/22 10:14:06;;;;;;;;;;;;;;;27.12;100.00;98969.91;5039304;28;19921;-40
2023/05/22 10:16:32;;;;;;;;;;;;;;;28.27;100.00;98949.19;5021545;28;19917;-41
2023/05/22 10:18:58;;;;;;;;;;;;;;;28.02;100.00;98974.81;5021711;28;20349;-41
2023/05/22 10:21:24;;;;;;;;;;;;;;;26.50;100.00;98961.13;5020978;28;19927;-41
2023/05/22 10:23:50;;;;;;;;;;;;;;;27.17;100.00;99050.56;5038639;28;19929;-40
2023/05/22 10:26:15;;;;;;;;;;;;;;;27.53;100.00;99009.81;5021644;28;20059;-41
2023/05/22 10:28:42;;;;;;;;;;;;;;;27.40;100.00;98982.16;5019652;28;19920;-41
2023/05/22 10:31:26;;;;;;;;;;;;;;;27.59;100.00;98954.63;5020776;28;20015;-41
2023/05/22 10:33:56;;;;;;;;;;;;;;;27.49;100.00;98966.16;5021044;28;19920;-41
2023/05/22 10:36:41;;;;;;;;;;;;;;;26.98;100.00;98973.13;5018815;28;20026;-40
2023/05/22 10:39:12;;;;;;;;;;;;;;;27.56;100.00;98947.00;5021915;28;19924;-40
2023/05/22 10:41:38;;;;;;;;;;;;;;;26.93;100.00;98890.81;5021483;28;19967;-41
2023/05/22 10:44:03;;;;;;;;;;;;;;;27.95;100.00;98899.69;5037997;28;19929;-41
2023/05/22 10:46:31;;;;;;;;;;;;;;;28.53;100.00;98879.38;5036591;28;19932;-40
2023/05/22 10:48:56;;;;;;;;;;;;;;;28.23;100.00;98873.72;5040010;28;20006;-41
2023/05/22 10:51:21;;;;;;;;;;;;;;;28.62;100.00;98843.91;5017706;28;20026;-40
2023/05/22 10:54:05;;;;;;;;;;;;;;;29.44;100.00;98766.72;5037451;28;19986;-40
2023/05/22 10:56:34;;;;;;;;;;;;;;;29.38;100.00;98759.47;5012363;28;20501;-40
2023/05/22 10:59:06;;;;;;;;;;;;;;;28.90;100.00;98801.13;5034101;28;20554;-41
2023/05/22 11:01:34;;;;;;;;;;;;;;;27.74;100.00;98815.44;5002215;28;19921;-40
2023/05/22 11:04:03;;;;;;;;;;;;;;;28.07;100.00;98869.25;5020336;28;19925;-41
2023/05/22 11:06:28;;;;;;;;;;;;;;;28.29;100.00;98820.09;5036386;28;20579;-40
2023/05/22 11:08:54;;;;;;;;;;;;;;;27.69;100.00;98846.84;5038255;28;19978;-40
2023/05/22 11:11:19;;;;;;;;;;;;;;;30.20;100.00;98756.19;5038784;28;19948;-40
2023/05/22 11:13:50;;;;;;;;;;;;;;;30.66;100.00;98694.91;5019677;28;19943;-40
2023/05/22 11:16:15;;;;;;;;;;;;;;;30.91;100.00;98716.72;5038156;28;19921;-41
2023/05/22 11:18:40;;;;;;;;;;;;;;;28.83;100.00;98765.66;5038748;28;20651;-41
2023/05/22 11:21:08;;;;;;;;;;;;;;;27.88;100.00;98793.63;5021470;28;20382;-40
2023/05/22 11:23:33;;;;;;;;;;;;;;;28.79;100.00;98762.56;5037946;28;20119;-41
2023/05/22 11:26:11;;;;;;;;;;;;;;;28.25;100.00;98781.69;5039754;28;20583;-40
2023/05/22 11:28:37;;;;;;;;;;;;;;;29.27;100.00;98738.66;5020251;28;20370;-41
2023/05/22 11:31:02;;;;;;;;;;;;;;;29.26;100.00;98731.69;5017596;28;19927;-40
2023/05/22 11:33:27;;;;;;;;;;;;;;;30.32;100.00;98693.66;5022253;28;19925;-40
2023/05/22 11:35:52;;;;;;;;;;;;;;;29.17;100.00;98710.53;5022645;28;19923;-41
2023/05/22 11:38:18;;;;;;;;;;;;;;;28.22;100.00;98750.28;5025777;28;19920;-41
2023/05/22 11:40:43;;;;;;;;;;;;;;;28.63;100.00;98715.75;5044067;28;19924;-41
2023/05/22 11:43:08;;;;;;;;;;;;;;;28.79;100.00;98722.81;5042570;28;19925;-41
2023/05/22 11:45:35;;;;;;;;;;;;;;;29.66;100.00;98696.06;5041189;28;19935;-41
2023/05/22 11:48:01;;;;;;;;;;;;;;;29.38;100.00;98704.59;5043666;28;20309;-40
2023/05/22 11:50:26;;;;;;;;;;;;;;;29.58;100.00;98723.50;5043393;28;19923;-41
2023/05/22 11:52:52;;;;;;;;;;;;;;;31.40;100.00;98656.63;5041907;28;19927;-41
2023/05/22 11:55:17;;;;;;;;;;;;;;;29.92;100.00;98647.06;5040095;28;20911;-41
2023/05/22 11:57:43;;;;;;;;;;;;;;;31.06;100.00;98620.91;5022090;28;19921;-41
2023/05/22 12:00:08;;;;;;;;;;;;;;;32.27;100.00;98602.13;5039005;28;19927;-41
2023/05/22 12:02:34;;;;;;;;;;;;;;;29.08;100.00;98653.25;5039329;28;19917;-41
2023/05/22 12:04:59;;;;;;;;;;;;;;;29.74;100.00;98672.16;5038691;28;19929;-41
2023/05/22 12:07:28;;;;;;;;;;;;;;;29.22;100.00;98672.03;5040905;28;19917;-41
2023/05/22 12:09:57;;;;;;;;;;;;;;;29.91;100.00;98698.53;5022805;28;19917;-41
2023/05/22 12:12:22;;;;;;;;;;;;;;;31.55;100.00;98617.47;5039419;28;19931;-41
2023/05/22 12:14:47;;;;;;;;;;;;;;;32.11;100.00;98594.47;5038435;28;19920;-40
2023/05/22 12:17:13;;;;;;;;;;;;;;;33.48;100.00;98550.66;5040114;28;20921;-41
2023/05/22 12:19:38;;;;;;;;;;;;;;;30.65;100.00;98634.75;5042105;28;20357;-40
2023/05/22 12:22:04;;;;;;;;;;;;;;;33.18;100.00;98588.44;5040545;28;19927;-41
2023/05/22 12:24:36;;;;;;;;;;;;;;;31.41;100.00;98637.84;5040286;28;19931;-41
2023/05/22 12:27:01;;;;;;;;;;;;;;;30.57;100.00;98646.34;5038678;28;20008;-41
2023/05/22 12:29:27;;;;;;;;;;;;;;;31.49;100.00;98628.88;5035994;28;20362;-41